createdAt,value
2018-05-01T00:02:15.903Z,94.80
2018-05-01T00:04:44.907Z,94.70
2018-05-01T00:07:13.924Z,95.10
2018-05-01T00:09:42.159Z,95.10
2018-05-01T00:12:10.410Z,95.80
2018-05-01T00:14:38.658Z,95.60
2018-05-01T00:17:07.652Z,96.10
2018-05-01T00:19:36.651Z,94.70
2018-05-01T00:22:04.866Z,94.70
2018-05-01T00:24:33.580Z,94.40
2018-05-01T00:27:01.814Z,94.60
2018-05-01T00:29:30.175Z,95.30
2018-05-01T00:31:59.174Z,94.70
2018-05-01T00:34:27.419Z,94.80
2018-05-01T00:36:55.651Z,94.40
2018-05-01T00:39:23.900Z,95.10
2018-05-01T00:41:52.897Z,95.30
2018-05-01T00:44:21.139Z,95.30
2018-05-01T00:46:49.385Z,95.10
2018-05-01T00:49:17.681Z,95.80
2018-05-01T00:51:47.431Z,95.20
2018-05-01T00:54:15.636Z,94.50
2018-05-01T00:56:43.909Z,94.70
2018-05-01T00:59:12.140Z,94.80
2018-05-01T01:01:40.368Z,96.10
2018-05-01T01:04:08.611Z,95.40
2018-05-01T01:06:36.910Z,94.90
2018-05-01T01:09:05.244Z,94.70
2018-05-01T01:11:33.493Z,95.20
2018-05-01T01:14:01.712Z,95.10
2018-05-01T01:16:29.997Z,95.10
2018-05-01T01:18:58.996Z,95.40
2018-05-01T01:21:27.260Z,95.20
2018-05-01T01:23:56.276Z,94.70
2018-05-01T01:26:24.528Z,94.60
2018-05-01T01:28:53.557Z,95.10
2018-05-01T01:31:21.778Z,95.10
2018-05-01T01:33:50.624Z,95.20
2018-05-01T01:36:18.353Z,95.50
2018-05-01T01:38:46.131Z,94.60
2018-05-01T01:41:13.870Z,94.30
2018-05-01T01:43:41.621Z,95.10
2018-05-01T01:46:09.374Z,95.60
2018-05-01T01:48:37.121Z,95.50
2018-05-01T01:51:04.864Z,95.40
2018-05-01T01:53:32.621Z,95.50
2018-05-01T01:56:00.369Z,94.60
2018-05-01T01:58:28.127Z,96.00
2018-05-01T02:00:55.871Z,95.80
2018-05-01T02:03:24.740Z,96.30
2018-05-01T02:05:52.471Z,96.10
2018-05-01T02:08:20.205Z,95.50
2018-05-01T02:10:48.729Z,96.30
2018-05-01T02:13:16.478Z,96.20
2018-05-01T02:15:44.998Z,94.50
2018-05-01T02:18:12.742Z,94.50
2018-05-01T02:20:40.535Z,95.50
2018-05-01T02:23:08.277Z,95.50
2018-05-01T02:25:36.028Z,94.50
2018-05-01T02:28:04.548Z,95.50
2018-05-01T02:30:32.370Z,95.50
2018-05-01T02:33:00.113Z,95.20
2018-05-01T02:35:27.868Z,95.30
2018-05-01T02:37:56.081Z,95.20
2018-05-01T02:40:23.840Z,94.80
2018-05-01T02:42:51.569Z,95.60
2018-05-01T02:45:19.346Z,95.70
2018-05-01T02:47:47.269Z,95.80
2018-05-01T02:50:15.032Z,95.80
2018-05-01T02:52:42.768Z,95.80
2018-05-01T02:55:10.511Z,95.50
2018-05-01T02:57:38.270Z,95.00
2018-05-01T03:00:06.799Z,95.70
2018-05-01T03:02:34.563Z,95.70
2018-05-01T03:05:02.296Z,95.40
2018-05-01T03:07:30.823Z,95.30
2018-05-01T03:09:58.580Z,95.30
2018-05-01T03:12:26.305Z,95.40
2018-05-01T03:14:55.272Z,95.00
2018-05-01T03:17:23.039Z,94.90
2018-05-01T03:19:50.953Z,95.50
2018-05-01T03:22:19.456Z,96.10
2018-05-01T03:24:47.225Z,95.80
2018-05-01T03:27:14.973Z,95.10
2018-05-01T03:29:42.731Z,95.30
2018-05-01T03:32:10.981Z,95.20
2018-05-01T03:34:39.049Z,95.60
2018-05-01T03:37:06.778Z,95.00
2018-05-01T03:39:35.287Z,95.20
2018-05-01T03:42:03.059Z,95.20
2018-05-01T03:44:30.781Z,95.30
2018-05-01T03:46:58.532Z,95.40
2018-05-01T03:49:26.276Z,95.70
2018-05-01T03:51:54.036Z,95.10
2018-05-01T03:54:22.537Z,95.60
2018-05-01T03:56:50.296Z,95.60
2018-05-01T03:59:18.039Z,94.80
2018-05-01T04:01:46.568Z,94.80
2018-05-01T04:04:14.396Z,94.80
2018-05-01T04:06:43.017Z,95.70
2018-05-01T04:09:10.782Z,95.70
2018-05-01T04:11:38.540Z,95.20
2018-05-01T04:14:06.284Z,95.20
2018-05-01T04:16:34.048Z,94.90
2018-05-01T04:19:01.965Z,95.10
2018-05-01T04:21:29.723Z,94.90
2018-05-01T04:23:57.463Z,94.80
2018-05-01T04:26:25.219Z,95.10
2018-05-01T04:28:52.966Z,95.20
2018-05-01T04:31:20.705Z,95.20
2018-05-01T04:33:48.468Z,96.00
2018-05-01T04:36:17.051Z,95.30
2018-05-01T04:38:44.823Z,95.20
2018-05-01T04:41:12.582Z,94.80
2018-05-01T04:43:41.100Z,94.60
2018-05-01T04:46:08.858Z,94.70
2018-05-01T04:48:36.619Z,95.10
2018-05-01T04:51:04.452Z,94.70
2018-05-01T04:53:32.187Z,95.20
2018-05-01T04:55:59.931Z,95.10
2018-05-01T04:58:27.743Z,95.10
2018-05-01T05:00:56.208Z,94.70
2018-05-01T05:03:23.960Z,94.60
2018-05-01T05:05:51.720Z,94.40
2018-05-01T05:08:20.235Z,94.30
2018-05-01T05:10:47.992Z,94.30
2018-05-01T05:13:15.750Z,95.00
2018-05-01T05:15:44.296Z,94.90
2018-05-01T05:18:12.082Z,94.90
2018-05-01T05:20:39.818Z,94.50
2018-05-01T05:23:07.563Z,95.00
2018-05-01T05:25:35.307Z,94.20
2018-05-01T05:28:03.821Z,94.50
2018-05-01T05:30:31.577Z,94.50
2018-05-01T05:32:59.337Z,94.20
2018-05-01T05:35:27.867Z,93.10
2018-05-01T05:37:55.623Z,93.10
2018-05-01T05:40:23.362Z,94.20
2018-05-01T05:42:51.965Z,94.10
2018-05-01T05:45:19.627Z,94.00
2018-05-01T05:47:48.153Z,94.40
2018-05-01T05:50:15.920Z,94.40
2018-05-01T05:52:44.284Z,94.30
2018-05-01T05:55:12.025Z,94.50
2018-05-01T05:57:40.563Z,93.20
2018-05-01T06:00:08.982Z,93.20
2018-05-01T06:02:37.608Z,94.20
2018-05-01T06:05:05.328Z,94.00
2018-05-01T06:07:33.084Z,94.50
2018-05-01T06:10:00.819Z,93.70
2018-05-01T06:12:28.591Z,93.50
2018-05-01T06:14:56.333Z,93.10
2018-05-01T06:17:24.176Z,93.50
2018-05-01T06:19:52.559Z,92.90
2018-05-01T06:22:20.332Z,92.70
2018-05-01T06:24:48.079Z,93.10
2018-05-01T06:27:16.632Z,94.10
2018-05-01T06:29:44.399Z,93.40
2018-05-01T06:32:13.660Z,93.10
2018-05-01T06:34:41.435Z,93.20
2018-05-01T06:37:09.200Z,93.30
2018-05-01T06:39:36.966Z,92.40
2018-05-01T06:42:04.684Z,92.50
2018-05-01T06:44:32.459Z,92.20
2018-05-01T06:47:00.194Z,93.20
2018-05-01T06:49:27.943Z,93.40
2018-05-01T06:51:55.700Z,92.00
2018-05-01T06:54:23.460Z,92.90
2018-05-01T06:56:52.070Z,92.20
2018-05-01T06:59:20.293Z,92.20
2018-05-01T07:01:49.584Z,92.80
2018-05-01T07:04:17.362Z,92.90
2018-05-01T07:06:45.064Z,93.00
2018-05-01T07:09:12.803Z,92.90
2018-05-01T07:11:41.381Z,92.10
2018-05-01T07:14:09.086Z,92.10
2018-05-01T07:16:36.824Z,92.90
2018-05-01T07:19:05.730Z,91.50
2018-05-01T07:21:34.229Z,92.50
2018-05-01T07:24:01.971Z,92.50
2018-05-01T07:26:30.516Z,91.10
2018-05-01T07:28:58.280Z,91.00
2018-05-01T07:31:26.040Z,91.50
2018-05-01T07:33:53.800Z,91.50
2018-05-01T07:36:21.549Z,91.00
2018-05-01T07:38:50.073Z,90.90
2018-05-01T07:41:17.813Z,91.00
2018-05-01T07:43:45.555Z,91.40
2018-05-01T07:46:14.059Z,90.70
2018-05-01T07:48:42.606Z,91.00
2018-05-01T07:51:10.357Z,90.90
2018-05-01T07:53:38.106Z,90.70
2018-05-01T07:56:05.835Z,87.50
2018-05-01T07:58:33.600Z,86.50
2018-05-01T08:01:01.339Z,86.90
2018-05-01T08:03:29.073Z,88.90
2018-05-01T08:05:56.843Z,88.50
2018-05-01T08:08:25.342Z,87.00
2018-05-01T08:10:53.128Z,87.20
2018-05-01T08:13:20.848Z,85.10
2018-05-01T08:15:49.373Z,86.40
2018-05-01T08:18:17.221Z,86.40
2018-05-01T08:20:45.813Z,85.80
2018-05-01T08:23:14.330Z,82.20
2018-05-01T08:25:42.108Z,82.10
2018-05-01T08:28:09.859Z,84.50
2018-05-01T08:30:37.620Z,83.90
2018-05-01T08:33:05.356Z,82.40
2018-05-01T08:35:33.937Z,79.80
2018-05-01T08:38:01.790Z,79.30
2018-05-01T08:40:30.060Z,82.40
2018-05-01T08:42:57.825Z,81.40
2018-05-01T08:45:25.653Z,80.60
2018-05-01T08:47:53.455Z,82.40
2018-05-01T08:50:21.162Z,79.90
2018-05-01T08:52:48.910Z,78.30
2018-05-01T08:55:16.664Z,78.00
2018-05-01T08:57:44.415Z,79.10
2018-05-01T09:00:12.308Z,79.40
2018-05-01T09:02:40.043Z,78.30
2018-05-01T09:05:08.598Z,82.80
2018-05-01T09:07:36.320Z,82.50
2018-05-01T09:10:04.145Z,78.50
2018-05-01T09:12:31.860Z,74.00
2018-05-01T09:14:59.648Z,73.00
2018-05-01T09:17:27.405Z,70.40
2018-05-01T09:19:55.168Z,72.20
2018-05-01T09:22:22.927Z,72.70
2018-05-01T09:24:50.694Z,66.30
2018-05-01T09:27:19.227Z,66.50
2018-05-01T09:29:46.992Z,66.40
2018-05-01T09:32:14.740Z,63.70
2018-05-01T09:34:42.506Z,63.50
2018-05-01T09:37:10.248Z,60.40
2018-05-01T09:39:38.760Z,56.40
2018-05-01T09:42:06.515Z,56.40
2018-05-01T09:44:35.038Z,57.10
2018-05-01T09:47:02.827Z,57.10
2018-05-01T09:49:30.560Z,54.70
2018-05-01T09:51:58.409Z,53.20
2018-05-01T09:54:26.628Z,53.60
2018-05-01T09:56:54.879Z,55.00
2018-05-01T09:59:23.144Z,53.90
2018-05-01T10:01:52.411Z,52.70
2018-05-01T10:04:20.664Z,52.70
2018-05-01T10:06:48.973Z,53.00
2018-05-01T10:09:17.221Z,52.30
2018-05-01T10:11:45.450Z,51.50
2018-05-01T10:14:13.716Z,51.80
2018-05-01T10:16:41.979Z,51.80
2018-05-01T10:19:10.233Z,52.40
2018-05-01T10:21:38.491Z,52.50
2018-05-01T10:24:07.489Z,53.90
2018-05-01T10:26:35.748Z,53.70
2018-05-01T10:29:04.522Z,52.60
2018-05-01T10:31:32.777Z,52.90
2018-05-01T10:34:01.063Z,52.30
2018-05-01T10:36:30.056Z,52.50
2018-05-01T10:38:58.865Z,51.90
2018-05-01T10:41:27.024Z,52.70
2018-05-01T10:43:55.682Z,53.70
2018-05-01T10:46:24.018Z,53.40
2018-05-01T10:48:52.390Z,53.00
2018-05-01T10:51:20.676Z,51.20
2018-05-01T10:53:48.940Z,52.00
2018-05-01T10:56:17.303Z,52.30
2018-05-01T10:58:45.549Z,52.70
2018-05-01T11:01:13.798Z,54.20
2018-05-01T11:03:42.808Z,53.00
2018-05-01T11:06:11.325Z,52.40
2018-05-01T11:08:39.590Z,52.30
2018-05-01T11:11:07.856Z,52.90
2018-05-01T11:13:36.228Z,52.10
2018-05-01T11:16:04.583Z,51.60
2018-05-01T11:18:32.749Z,51.30
2018-05-01T11:21:01.026Z,51.50
2018-05-01T11:23:29.265Z,50.90
2018-05-01T11:25:57.589Z,50.90
2018-05-01T11:28:25.795Z,51.70
2018-05-01T11:30:54.077Z,51.00
2018-05-01T11:33:23.109Z,49.60
2018-05-01T11:35:51.340Z,49.60
2018-05-01T11:38:20.373Z,49.60
2018-05-01T11:40:49.163Z,49.60
2018-05-01T11:43:17.420Z,49.20
2018-05-01T11:48:12.046Z,49.20
2018-05-01T11:50:41.080Z,48.80
2018-05-01T11:53:09.360Z,48.80
2018-05-01T11:55:37.634Z,48.80
2018-05-01T11:58:05.857Z,48.80
2018-05-01T12:00:34.184Z,50.10
2018-05-01T12:03:02.472Z,49.70
2018-05-01T12:05:30.700Z,49.10
2018-05-01T12:07:58.971Z,49.50
2018-05-01T12:10:27.265Z,47.60
2018-05-01T12:12:55.520Z,48.10
2018-05-01T12:15:23.751Z,47.70
2018-05-01T12:17:52.788Z,46.70
2018-05-01T12:20:21.033Z,46.60
2018-05-01T12:22:50.188Z,44.70
2018-05-01T12:25:18.444Z,44.60
2018-05-01T12:27:47.690Z,43.70
2018-05-01T12:30:16.551Z,44.70
2018-05-01T12:32:44.819Z,41.10
2018-05-01T12:35:13.956Z,42.00
2018-05-01T12:37:42.225Z,40.30
2018-05-01T12:40:10.482Z,41.60
2018-05-01T12:42:38.708Z,40.30
2018-05-01T12:45:06.957Z,39.80
2018-05-01T12:47:35.222Z,39.80
2018-05-01T12:50:03.460Z,37.80
2018-05-01T12:52:31.720Z,39.00
2018-05-01T12:55:00.337Z,36.30
2018-05-01T12:57:28.580Z,34.90
2018-05-01T12:59:57.772Z,35.60
2018-05-01T13:02:26.723Z,35.60
2018-05-01T13:04:55.747Z,34.10
2018-05-01T13:07:24.593Z,34.00
2018-05-01T13:09:52.916Z,33.20
2018-05-01T13:12:21.160Z,32.30
2018-05-01T13:14:49.397Z,31.60
2018-05-01T13:17:17.638Z,30.70
2018-05-01T13:19:45.871Z,28.10
2018-05-01T13:22:14.118Z,27.50
2018-05-01T13:24:43.150Z,28.00
2018-05-01T13:27:11.388Z,28.00
2018-05-01T13:29:40.549Z,29.00
2018-05-01T13:32:08.800Z,29.00
2018-05-01T13:34:37.053Z,26.80
2018-05-01T13:37:06.076Z,28.20
2018-05-01T13:39:34.330Z,28.20
2018-05-01T13:42:03.348Z,28.80
2018-05-01T13:44:32.193Z,28.80
2018-05-01T13:47:01.207Z,28.90
2018-05-01T13:49:29.626Z,29.00
2018-05-01T13:51:58.053Z,29.10
2018-05-01T13:54:26.361Z,28.60
2018-05-01T13:56:54.613Z,29.60
2018-05-01T13:59:22.880Z,29.80
2018-05-01T14:01:51.140Z,30.30
2018-05-01T14:04:19.437Z,32.10
2018-05-01T14:06:48.652Z,31.60
2018-05-01T14:09:17.656Z,30.70
2018-05-01T14:11:45.960Z,30.70
2018-05-01T14:14:14.474Z,31.50
2018-05-01T14:16:42.699Z,31.80
2018-05-01T14:19:10.953Z,32.80
2018-05-01T14:21:39.227Z,31.10
2018-05-01T14:24:07.480Z,32.40
2018-05-01T14:26:35.732Z,31.90
2018-05-01T14:29:03.965Z,30.30
2018-05-01T14:31:32.235Z,29.90
2018-05-01T14:34:01.224Z,29.20
2018-05-01T14:36:30.250Z,29.60
2018-05-01T14:38:58.538Z,29.60
2018-05-01T14:41:26.777Z,29.70
2018-05-01T14:43:55.008Z,29.40
2018-05-01T14:46:23.272Z,30.10
2018-05-01T14:48:51.496Z,30.00
2018-05-01T14:51:19.743Z,31.00
2018-05-01T14:53:47.966Z,29.90
2018-05-01T14:56:16.291Z,29.80
2018-05-01T14:58:45.796Z,32.80
2018-05-01T15:01:14.852Z,32.20
2018-05-01T15:03:43.860Z,32.10
2018-05-01T15:06:12.105Z,32.90
2018-05-01T15:08:40.375Z,32.70
2018-05-01T15:11:08.614Z,31.50
2018-05-01T15:13:36.869Z,30.80
2018-05-01T15:16:05.101Z,31.70
2018-05-01T15:18:33.855Z,31.10
2018-05-01T15:21:02.132Z,31.90
2018-05-01T15:23:30.400Z,30.70
2018-05-01T15:25:58.644Z,30.60
2018-05-01T15:28:27.013Z,30.90
2018-05-01T15:30:56.085Z,31.90
2018-05-01T15:33:24.325Z,31.80
2018-05-01T15:35:53.151Z,32.70
2018-05-01T15:38:21.401Z,33.10
2018-05-01T15:40:49.744Z,32.50
2018-05-01T15:43:18.004Z,33.20
2018-05-01T15:45:46.247Z,33.20
2018-05-01T15:48:14.478Z,34.30
2018-05-01T15:50:42.708Z,34.20
2018-05-01T15:53:10.959Z,34.10
2018-05-01T15:55:39.199Z,33.80
2018-05-01T15:58:07.476Z,34.20
2018-05-01T16:00:35.757Z,34.90
2018-05-01T16:03:04.025Z,34.70
2018-05-01T16:05:32.298Z,33.90
2018-05-01T16:08:00.550Z,33.70
2018-05-01T16:10:29.548Z,34.50
2018-05-01T16:12:57.884Z,34.50
2018-05-01T16:15:26.149Z,33.70
2018-05-01T16:17:54.410Z,34.20
2018-05-01T16:20:22.664Z,36.40
2018-05-01T16:22:51.700Z,35.30
2018-05-01T16:25:20.543Z,35.20
2018-05-01T16:27:48.813Z,36.00
2018-05-01T16:30:17.048Z,36.40
2018-05-01T16:32:45.335Z,35.30
2018-05-01T16:35:13.629Z,36.30
2018-05-01T16:37:41.852Z,36.10
2018-05-01T16:40:11.007Z,36.40
2018-05-01T16:42:39.223Z,36.30
2018-05-01T16:45:07.499Z,35.10
2018-05-01T16:47:35.767Z,36.10
2018-05-01T16:50:04.005Z,36.00
2018-05-01T16:52:32.292Z,36.60
2018-05-01T16:55:00.524Z,36.60
2018-05-01T16:57:28.817Z,36.00
2018-05-01T16:59:57.072Z,36.00
2018-05-01T17:02:25.454Z,36.00
2018-05-01T17:04:53.689Z,36.20
2018-05-01T17:07:21.990Z,36.80
2018-05-01T17:09:50.982Z,36.60
2018-05-01T17:12:19.223Z,36.60
2018-05-01T17:14:48.315Z,36.70
2018-05-01T17:17:16.599Z,36.60
2018-05-01T17:19:44.855Z,37.50
2018-05-01T17:22:13.119Z,37.30
2018-05-01T17:24:41.413Z,36.90
2018-05-01T17:27:09.655Z,36.50
2018-05-01T17:29:37.908Z,36.60
2018-05-01T17:32:06.148Z,37.10
2018-05-01T17:34:34.397Z,37.00
2018-05-01T17:37:02.666Z,37.60
2018-05-01T17:39:31.725Z,38.30
2018-05-01T17:41:59.960Z,38.20
2018-05-01T17:44:28.239Z,37.90
2018-05-01T17:46:57.296Z,38.20
2018-05-01T17:49:25.591Z,38.20
2018-05-01T17:51:53.820Z,38.60
2018-05-01T17:54:22.094Z,38.90
2018-05-01T17:56:50.348Z,38.80
2018-05-01T17:59:19.375Z,39.20
2018-05-01T18:01:47.640Z,39.10
2018-05-01T18:04:15.992Z,39.00
2018-05-01T18:06:44.334Z,39.10
2018-05-01T18:09:12.588Z,39.20
2018-05-01T18:11:40.880Z,39.50
2018-05-01T18:14:09.156Z,40.10
2018-05-01T18:16:37.397Z,40.20
2018-05-01T18:19:05.668Z,40.30
2018-05-01T18:21:33.892Z,40.50
2018-05-01T18:24:02.934Z,40.90
2018-05-01T18:26:31.180Z,40.90
2018-05-01T18:28:59.452Z,41.00
2018-05-01T18:31:28.520Z,41.20
2018-05-01T18:33:56.808Z,41.20
2018-05-01T18:36:25.049Z,41.10
2018-05-01T18:38:53.317Z,41.50
2018-05-01T18:41:21.547Z,41.30
2018-05-01T18:43:49.805Z,41.50
2018-05-01T18:46:18.076Z,41.50
2018-05-01T18:48:46.395Z,41.90
2018-05-01T18:51:15.120Z,42.20
2018-05-01T18:53:43.366Z,42.40
2018-05-01T18:56:11.688Z,42.50
2018-05-01T18:58:39.945Z,43.90
2018-05-01T19:01:09.425Z,44.30
2018-05-01T19:03:37.684Z,44.30
2018-05-01T19:06:05.965Z,44.90
2018-05-01T19:08:34.225Z,45.20
2018-05-01T19:11:02.499Z,45.80
2018-05-01T19:13:31.518Z,47.40
2018-05-01T19:15:59.765Z,47.40
2018-05-01T19:18:28.805Z,48.40
2018-05-01T19:20:57.053Z,48.40
2018-05-01T19:23:25.331Z,48.80
2018-05-01T19:25:54.196Z,49.20
2018-05-01T19:28:22.452Z,49.50
2018-05-01T19:30:50.810Z,50.10
2018-05-01T19:33:19.572Z,50.90
2018-05-01T19:35:48.614Z,52.60
2018-05-01T19:38:16.884Z,52.60
2018-05-01T19:40:45.187Z,53.10
2018-05-01T19:43:13.496Z,53.20
2018-05-01T19:45:41.781Z,53.50
2018-05-01T19:48:10.020Z,54.10
2018-05-01T19:50:38.341Z,54.60
2018-05-01T19:53:06.569Z,54.70
2018-05-01T19:55:34.935Z,55.80
2018-05-01T19:58:03.199Z,56.40
2018-05-01T20:00:31.466Z,58.00
2018-05-01T20:03:00.447Z,58.20
2018-05-01T20:05:29.318Z,58.40
2018-05-01T20:07:58.776Z,59.00
2018-05-01T20:10:27.035Z,59.50
2018-05-01T20:12:55.342Z,59.70
2018-05-01T20:15:23.612Z,59.90
2018-05-01T20:17:51.852Z,60.60
2018-05-01T20:20:20.102Z,61.80
2018-05-01T20:22:49.195Z,62.90
2018-05-01T20:25:18.230Z,63.30
2018-05-01T20:27:46.479Z,62.50
2018-05-01T20:30:15.524Z,63.80
2018-05-01T20:32:43.746Z,63.80
2018-05-01T20:35:12.744Z,66.50
2018-05-01T20:37:41.795Z,66.30
2018-05-01T20:40:10.061Z,65.70
2018-05-01T20:42:39.065Z,65.20
2018-05-01T20:45:07.293Z,65.20
2018-05-01T20:47:35.580Z,65.60
2018-05-01T20:50:04.777Z,65.00
2018-05-01T20:52:33.915Z,64.40
2018-05-01T20:55:02.145Z,65.00
2018-05-01T20:57:30.397Z,65.10
2018-05-01T20:59:58.681Z,65.00
2018-05-01T21:02:26.940Z,64.20
2018-05-01T21:04:55.249Z,64.20
2018-05-01T21:07:23.502Z,64.10
2018-05-01T21:09:51.746Z,64.90
2018-05-01T21:12:20.021Z,65.10
2018-05-01T21:14:48.252Z,65.10
2018-05-01T21:17:16.856Z,65.60
2018-05-01T21:19:45.096Z,66.00
2018-05-01T21:22:15.099Z,65.20
2018-05-01T21:24:44.018Z,65.30
2018-05-01T21:27:13.043Z,65.20
2018-05-01T21:29:41.264Z,65.20
2018-05-01T21:32:09.529Z,64.50
2018-05-01T21:34:37.771Z,65.00
2018-05-01T21:37:06.036Z,64.80
2018-05-01T21:39:35.050Z,64.80
2018-05-01T21:42:03.286Z,64.80
2018-05-01T21:44:31.575Z,64.90
2018-05-01T21:46:59.816Z,66.10
2018-05-01T21:49:28.557Z,67.00
2018-05-01T21:51:56.801Z,66.40
2018-05-01T21:54:25.039Z,66.70
2018-05-01T21:56:54.060Z,68.30
2018-05-01T21:59:22.777Z,68.30
2018-05-01T22:01:51.033Z,69.20
2018-05-01T22:04:19.271Z,68.50
2018-05-01T22:06:48.420Z,67.40
2018-05-01T22:09:16.653Z,67.90
2018-05-01T22:11:44.920Z,68.30
2018-05-01T22:14:13.682Z,67.70
2018-05-01T22:16:41.897Z,68.20
2018-05-01T22:19:10.229Z,68.30
2018-05-01T22:21:38.450Z,67.50
2018-05-01T22:24:06.688Z,67.30
2018-05-01T22:26:34.992Z,66.90
2018-05-01T22:29:03.236Z,67.00
2018-05-01T22:31:31.473Z,66.80
2018-05-01T22:34:00.789Z,66.40
2018-05-01T22:36:29.754Z,66.60
2018-05-01T22:38:58.002Z,66.60
2018-05-01T22:41:26.244Z,67.50
2018-05-01T22:43:54.492Z,67.70
2018-05-01T22:46:22.732Z,67.50
2018-05-01T22:48:52.332Z,67.10
2018-05-01T22:51:21.352Z,66.20
2018-05-01T22:53:50.341Z,65.80
2018-05-01T22:56:19.337Z,65.40
2018-05-01T22:58:48.372Z,66.00
2018-05-01T23:01:16.628Z,65.90
2018-05-01T23:03:44.892Z,66.20
2018-05-01T23:06:14.028Z,67.50
2018-05-01T23:08:42.277Z,67.50
2018-05-01T23:11:11.912Z,66.70
2018-05-01T23:13:40.900Z,67.50
2018-05-01T23:16:10.417Z,68.70
2018-05-01T23:18:38.664Z,68.70
2018-05-01T23:21:06.948Z,68.40
2018-05-01T23:23:35.206Z,67.90
2018-05-01T23:26:03.529Z,68.40
2018-05-01T23:28:32.536Z,66.70
2018-05-01T23:31:01.248Z,66.70
2018-05-01T23:33:29.496Z,67.70
2018-05-01T23:35:58.492Z,68.20
2018-05-01T23:38:27.499Z,69.00
2018-05-01T23:40:56.500Z,69.50
2018-05-01T23:45:52.155Z,68.80
2018-05-01T23:48:20.394Z,69.50
2018-05-01T23:50:48.705Z,69.70
2018-05-01T23:53:17.008Z,68.50
2018-05-01T23:55:45.246Z,68.50
2018-05-01T23:58:13.551Z,70.30
